Terminal Aerodrome Forecast
Issued by NWS

Home | Current Version | Previous Version | Text Only | Print | Product List | Glossary On
Versions: 1 2 3 4 5 6 7 8 9 10 11 12 13
193
FTUS45 KVEF 232320
TAFHND
TAF
KHND 232320Z 2400/2424 22010G16KT P6SM FEW250
     FM240300 23009KT P6SM SKC
     FM241500 VRB05KT P6SM SKC
     FM242000 22010G16KT P6SM SKC=

USA.gov is the U.S. government's official web portal to all federal, state and local government web resources and services.